Time;durP1;ratioP1;P1;durP2;ratioP2;P2;SDS_P1;SDS_P2;PMS_P1;PMS_P2;Temp;Humidity;BMP_temperature;BMP_pressure;BME280_temperature;BME280_humidity;BME280_pressure;Samples;Min_cycle;Max_cycle;Signal;HPM_P1;HPM_P2
2022/05/25 00:01:24;;;;;;;4.53;1.70;;;18.70;78.60;;;;;;5030236;28;20298;-60
2022/05/25 00:03:49;;;;;;;1.63;1.47;;;18.60;78.80;;;;;;5014115;28;20262;-59
2022/05/25 00:06:16;;;;;;;2.67;1.53;;;18.60;78.70;;;;;;5030545;28;20549;-60
2022/05/25 00:08:43;;;;;;;2.43;1.70;;;18.60;78.80;;;;;;5030451;28;20192;-60
2022/05/25 00:11:09;;;;;;;1.97;1.77;;;18.50;78.80;;;;;;5047060;28;20193;-60
2022/05/25 00:13:36;;;;;;;2.90;1.90;;;18.50;78.80;;;;;;5046328;28;20187;-60
2022/05/25 00:16:03;;;;;;;3.90;2.43;;;18.50;78.80;;;;;;4997687;28;20181;-59
2022/05/25 00:18:30;;;;;;;4.33;2.13;;;18.50;78.90;;;;;;4983313;28;20224;-60
2022/05/25 00:20:56;;;;;;;2.83;1.90;;;18.50;79.20;;;;;;5006584;28;20247;-59
2022/05/25 00:23:22;;;;;;;5.07;1.90;;;18.40;79.10;;;;;;5014551;28;20275;-60
2022/05/25 00:25:48;;;;;;;2.17;1.70;;;18.50;78.90;;;;;;5029803;28;20270;-59
2022/05/25 00:28:14;;;;;;;1.90;1.80;;;18.40;78.50;;;;;;5013526;28;20198;-61
2022/05/25 00:30:41;;;;;;;4.43;2.50;;;18.40;78.50;;;;;;5028050;28;20193;-60
2022/05/25 00:33:07;;;;;;;3.23;2.00;;;18.50;78.30;;;;;;4994644;28;20191;-60
2022/05/25 00:35:35;;;;;;;2.83;1.77;;;18.50;78.60;;;;;;4993941;28;20180;-61
2022/05/25 00:38:02;;;;;;;4.57;1.90;;;18.50;78.60;;;;;;5012540;28;20224;-61
2022/05/25 00:40:35;;;;;;;1.77;1.67;;;18.50;78.40;;;;;;5013432;28;20184;-61
2022/05/25 00:46:32;;;;;;;2.27;2.07;;;18.50;77.30;;;;;;5013791;28;20217;-61
2022/05/25 00:49:17;;;;;;;1.83;1.63;;;18.50;77.40;;;;;;5013195;28;20191;-60
2022/05/25 00:51:48;;;;;;;2.37;2.03;;;18.50;78.20;;;;;;5013393;28;20282;-60
2022/05/25 00:54:20;;;;;;;3.40;1.90;;;18.50;78.80;;;;;;5012825;28;20185;-60
2022/05/25 00:56:48;;;;;;;4.30;1.60;;;18.50;79.30;;;;;;5013963;28;20207;-60
2022/05/25 00:59:52;;;;;;;2.30;2.10;;;18.50;79.70;;;;;;5012748;28;20183;-60
2022/05/25 01:02:18;;;;;;;2.60;2.00;;;18.50;79.90;;;;;;5012043;28;20196;-60
2022/05/25 01:04:44;;;;;;;2.83;2.23;;;18.50;80.00;;;;;;5016402;28;20180;-60
2022/05/25 01:08:03;;;;;;;2.90;1.77;;;18.40;79.90;;;;;;4993299;28;20187;-60
2022/05/25 01:10:43;;;;;;;3.97;2.07;;;18.40;80.10;;;;;;4985460;28;20204;-60
2022/05/25 01:13:21;;;;;;;2.23;1.80;;;18.40;80.30;;;;;;5004589;28;20188;-61
2022/05/25 01:16:07;;;;;;;5.63;1.97;;;18.40;80.50;;;;;;5021015;28;20192;-60
2022/05/25 01:18:39;;;;;;;2.10;1.60;;;18.40;80.80;;;;;;5001856;28;20291;-60
2022/05/25 01:21:23;;;;;;;4.20;1.90;;;18.40;81.00;;;;;;4997042;28;20222;-60
2022/05/25 01:24:18;;;;;;;3.10;1.90;;;18.30;80.90;;;;;;5030375;28;20202;-62
2022/05/25 01:26:54;;;;;;;2.43;1.70;;;18.30;80.70;;;;;;5034976;28;20191;-60
2022/05/25 01:29:41;;;;;;;3.77;2.20;;;18.30;80.60;;;;;;5040147;28;20195;-60
2022/05/25 01:32:18;;;;;;;3.63;2.10;;;18.30;80.50;;;;;;5013343;28;20259;-61
2022/05/25 01:35:05;;;;;;;5.03;2.10;;;18.30;80.40;;;;;;4997024;28;20194;-60
2022/05/25 01:37:54;;;;;;;2.20;2.00;;;18.30;80.70;;;;;;5013472;28;20208;-60
2022/05/25 01:40:49;;;;;;;3.23;2.00;;;18.30;80.70;;;;;;5019300;28;20335;-60
2022/05/25 01:43:23;;;;;;;4.70;2.30;;;18.30;80.80;;;;;;4996849;28;20223;-61
2022/05/25 01:45:55;;;;;;;2.67;2.27;;;18.30;80.50;;;;;;5008763;28;20210;-60
2022/05/25 01:48:22;;;;;;;6.83;2.50;;;18.30;80.40;;;;;;5049698;28;20226;-60
2022/05/25 01:50:53;;;;;;;3.80;2.13;;;18.30;80.50;;;;;;5032885;28;20196;-60
2022/05/25 01:53:22;;;;;;;3.73;2.30;;;18.20;80.50;;;;;;5048547;28;20176;-60
2022/05/25 01:55:52;;;;;;;4.00;2.30;;;18.30;80.60;;;;;;4996270;28;20181;-59
2022/05/25 01:58:20;;;;;;;5.73;2.20;;;18.20;80.70;;;;;;4998598;28;20208;-60
2022/05/25 02:00:51;;;;;;;5.73;2.10;;;18.20;80.30;;;;;;4996475;28;20180;-60
2022/05/25 02:06:17;;;;;;;2.40;2.10;;;18.20;79.50;;;;;;5016592;28;20179;-60
2022/05/25 02:08:52;;;;;;;2.27;2.00;;;18.20;78.80;;;;;;5016042;28;20191;-60
2022/05/25 02:11:26;;;;;;;3.13;2.00;;;18.30;78.90;;;;;;5012777;28;20191;-62
2022/05/25 02:13:55;;;;;;;5.53;2.43;;;18.20;78.90;;;;;;4997629;28;20274;-61
2022/05/25 02:16:45;;;;;;;3.53;2.50;;;18.20;79.30;;;;;;5047766;28;20295;-62
2022/05/25 02:19:22;;;;;;;6.17;4.90;;;18.20;80.30;;;;;;5018494;28;20291;-64
2022/05/25 02:22:10;;;;;;;10.87;6.00;;;18.10;84.40;;;;;;5015728;28;20184;-63
2022/05/25 02:24:46;;;;;;;16.77;7.60;;;17.80;89.10;;;;;;5015849;28;20183;-63
2022/05/25 02:27:21;;;;;;;6.90;5.83;;;17.50;90.20;;;;;;5046217;28;20190;-64
2022/05/25 02:29:49;;;;;;;7.67;4.90;;;17.30;91.10;;;;;;5050939;28;20194;-64
2022/05/25 02:32:24;;;;;;;7.13;4.80;;;17.10;91.70;;;;;;5015124;28;20196;-64
2022/05/25 02:34:52;;;;;;;5.87;3.17;;;17.00;92.10;;;;;;5048564;28;20194;-64
2022/05/25 02:37:22;;;;;;;5.37;3.23;;;16.80;92.30;;;;;;5048534;28;20298;-64
2022/05/25 02:39:50;;;;;;;3.37;2.80;;;16.70;92.50;;;;;;5015262;28;20238;-65
2022/05/25 02:42:17;;;;;;;4.83;2.17;;;16.50;92.20;;;;;;5014833;28;20235;-66
2022/05/25 02:44:43;;;;;;;2.13;1.83;;;16.30;92.10;;;;;;5048197;28;20219;-68
2022/05/25 02:47:10;;;;;;;4.10;2.00;;;16.20;92.50;;;;;;5045265;28;20192;-65
2022/05/25 02:49:36;;;;;;;5.07;2.33;;;16.20;92.70;;;;;;5014719;28;20199;-66
2022/05/25 02:52:03;;;;;;;5.30;2.00;;;16.20;93.00;;;;;;4995717;28;20199;-66
2022/05/25 02:54:28;;;;;;;7.17;2.27;;;16.10;93.10;;;;;;5045649;28;20187;-66
2022/05/25 02:56:54;;;;;;;3.57;1.30;;;16.00;93.00;;;;;;5003874;28;20216;-66
2022/05/25 02:59:20;;;;;;;1.63;1.30;;;16.00;93.10;;;;;;4980061;28;20200;-66
2022/05/25 03:01:45;;;;;;;8.57;1.43;;;15.80;92.90;;;;;;5031144;28;20188;-66
2022/05/25 03:04:11;;;;;;;3.70;1.60;;;15.70;93.10;;;;;;5015034;28;20294;-66
2022/05/25 03:06:37;;;;;;;2.43;1.33;;;15.60;93.10;;;;;;5014178;28;20274;-67
2022/05/25 03:09:03;;;;;;;4.20;1.17;;;15.50;93.10;;;;;;4999234;28;20258;-66
2022/05/25 03:11:29;;;;;;;3.70;1.20;;;15.40;93.10;;;;;;4996427;28;20184;-65
2022/05/25 03:13:55;;;;;;;2.93;1.57;;;15.30;93.10;;;;;;4983922;28;20196;-66
2022/05/25 03:16:22;;;;;;;6.00;1.47;;;15.30;93.20;;;;;;5015432;28;20196;-66
2022/05/25 03:18:50;;;;;;;3.17;1.73;;;15.20;93.20;;;;;;5026923;28;20196;-66
2022/05/25 03:21:17;;;;;;;4.67;1.37;;;15.10;93.30;;;;;;5046925;28;20226;-66
2022/05/25 03:23:43;;;;;;;3.63;1.27;;;15.10;93.30;;;;;;5014972;28;20242;-67
2022/05/25 03:26:08;;;;;;;2.33;1.20;;;15.00;93.30;;;;;;4992897;28;20184;-66
2022/05/25 03:28:34;;;;;;;3.60;1.40;;;15.00;93.30;;;;;;5007373;28;20192;-66
2022/05/25 03:31:00;;;;;;;3.13;1.30;;;14.90;93.30;;;;;;5029174;28;20295;-66
2022/05/25 03:33:26;;;;;;;4.10;1.67;;;14.80;93.30;;;;;;5019512;28;20325;-66
2022/05/25 03:35:51;;;;;;;3.00;1.37;;;14.80;93.40;;;;;;5030965;28;20200;-66
2022/05/25 03:38:17;;;;;;;3.30;1.70;;;14.80;93.50;;;;;;5031181;28;20302;-65
2022/05/25 03:40:43;;;;;;;4.27;2.10;;;14.80;93.50;;;;;;5031316;28;20184;-66
2022/05/25 03:43:11;;;;;;;2.33;1.93;;;14.80;93.50;;;;;;5030293;28;20232;-66
2022/05/25 03:45:37;;;;;;;6.53;2.57;;;14.80;93.50;;;;;;5018359;28;20179;-73
2022/05/25 03:48:07;;;;;;;4.27;1.80;;;14.80;93.50;;;;;;4999696;28;20192;-68
2022/05/25 03:50:34;;;;;;;3.30;1.47;;;14.80;93.50;;;;;;4994580;28;20332;-68
2022/05/25 03:53:00;;;;;;;2.00;1.50;;;14.70;93.40;;;;;;5028272;28;20275;-69
2022/05/25 03:55:26;;;;;;;2.87;2.00;;;14.70;93.50;;;;;;5027070;28;20184;-66
2022/05/25 03:57:52;;;;;;;3.03;2.10;;;14.70;93.60;;;;;;4995278;28;20207;-68
2022/05/25 04:00:18;;;;;;;5.63;1.90;;;14.80;93.70;;;;;;4997828;28;20239;-68
2022/05/25 04:02:47;;;;;;;3.47;1.67;;;14.80;93.80;;;;;;4996322;28;20199;-68
2022/05/25 04:05:13;;;;;;;4.00;1.20;;;14.80;94.00;;;;;;5004231;28;20245;-66
2022/05/25 04:07:44;;;;;;;1.70;1.20;;;14.90;93.90;;;;;;5010871;28;20202;-66
2022/05/25 04:10:13;;;;;;;1.23;1.00;;;14.90;94.00;;;;;;5016238;28;20287;-66
2022/05/25 04:12:40;;;;;;;2.00;1.03;;;15.00;93.90;;;;;;5045038;28;20188;-66
2022/05/25 04:15:11;;;;;;;2.00;1.10;;;15.00;93.90;;;;;;5030143;28;20200;-66
2022/05/25 04:17:36;;;;;;;1.13;1.03;;;15.10;94.00;;;;;;5030522;28;20219;-66
2022/05/25 04:20:05;;;;;;;1.90;1.20;;;15.10;94.00;;;;;;5013686;28;20187;-66
2022/05/25 04:22:32;;;;;;;3.63;1.40;;;15.20;94.00;;;;;;5012016;28;20206;-66
2022/05/25 04:24:59;;;;;;;5.77;1.00;;;15.20;94.00;;;;;;5014217;28;20279;-66
2022/05/25 04:27:26;;;;;;;1.20;1.00;;;15.30;94.10;;;;;;5046331;28;20191;-67
2022/05/25 04:29:51;;;;;;;1.47;1.17;;;15.30;94.10;;;;;;5046102;28;20188;-66
2022/05/25 04:32:17;;;;;;;1.10;0.90;;;15.40;94.10;;;;;;5012118;28;20196;-66
2022/05/25 04:34:43;;;;;;;3.23;1.00;;;15.40;94.10;;;;;;5021506;28;20206;-67
2022/05/25 04:40:13;;;;;;;3.70;1.60;;;15.50;94.00;;;;;;4999909;28;20188;-66
2022/05/25 04:42:40;;;;;;;3.10;1.60;;;15.50;94.00;;;;;;5011502;28;20239;-65
2022/05/25 04:45:07;;;;;;;2.03;1.23;;;15.60;94.00;;;;;;5043538;28;20223;-65
2022/05/25 04:47:34;;;;;;;1.40;1.30;;;15.60;93.90;;;;;;5011695;28;20195;-66
2022/05/25 04:50:00;;;;;;;1.00;0.90;;;15.50;93.80;;;;;;5044415;28;20196;-65
2022/05/25 04:52:27;;;;;;;5.00;1.60;;;15.50;93.80;;;;;;4993105;28;20203;-65
2022/05/25 04:54:53;;;;;;;2.53;1.10;;;15.60;93.80;;;;;;4995644;28;20356;-66
2022/05/25 04:57:19;;;;;;;1.70;0.90;;;15.60;93.80;;;;;;5010582;28;20239;-66
2022/05/25 04:59:59;;;;;;;3.00;1.20;;;15.60;93.90;;;;;;5010942;28;20287;-67
2022/05/25 05:02:29;;;;;;;5.37;1.33;;;15.60;93.90;;;;;;5012113;28;20194;-67
2022/05/25 05:04:56;;;;;;;1.40;1.27;;;15.60;93.90;;;;;;5027683;28;20220;-67
2022/05/25 05:07:32;;;;;;;5.67;1.67;;;15.70;93.80;;;;;;5045097;28;20205;-66
2022/05/25 05:10:01;;;;;;;5.30;1.90;;;15.70;93.90;;;;;;5043871;28;20195;-67
2022/05/25 05:12:27;;;;;;;3.93;1.67;;;15.70;93.90;;;;;;5028315;28;20177;-67
2022/05/25 05:14:53;;;;;;;3.03;1.90;;;15.80;93.90;;;;;;5024727;28;20202;-66
2022/05/25 05:17:19;;;;;;;3.77;2.37;;;15.80;93.90;;;;;;5022638;28;20216;-66
2022/05/25 05:19:45;;;;;;;3.57;1.87;;;15.80;93.90;;;;;;5024774;28;20197;-68
2022/05/25 05:22:11;;;;;;;3.87;1.50;;;15.90;93.80;;;;;;5018564;28;20203;-66
2022/05/25 05:24:37;;;;;;;6.17;1.80;;;15.90;93.80;;;;;;5019635;28;20190;-66
2022/05/25 05:27:04;;;;;;;5.23;2.13;;;16.00;93.90;;;;;;5028458;28;20191;-67
2022/05/25 05:29:30;;;;;;;4.10;1.67;;;16.00;93.70;;;;;;5002968;28;20193;-67
2022/05/25 05:31:57;;;;;;;5.50;2.40;;;16.00;93.60;;;;;;4995530;28;20200;-66
2022/05/25 05:34:23;;;;;;;4.73;2.37;;;16.00;93.10;;;;;;5044302;28;20222;-68
2022/05/25 05:36:54;;;;;;;3.67;2.00;;;16.00;92.60;;;;;;5025756;28;20223;-70
2022/05/25 05:39:24;;;;;;;2.83;1.67;;;16.00;92.50;;;;;;5011427;28;20224;-70
2022/05/25 05:42:11;;;;;;;3.00;2.10;;;16.00;92.50;;;;;;5011229;28;20236;-70
2022/05/25 05:44:41;;;;;;;4.83;1.90;;;16.00;92.20;;;;;;5043199;28;20230;-67
2022/05/25 05:47:11;;;;;;;5.67;2.00;;;16.00;92.00;;;;;;5043756;28;20196;-69
2022/05/25 05:49:39;;;;;;;4.07;2.00;;;16.00;91.50;;;;;;5046011;28;20195;-68
2022/05/25 05:52:06;;;;;;;3.60;1.77;;;16.10;91.90;;;;;;5028424;28;20204;-65
2022/05/25 05:54:32;;;;;;;2.57;1.70;;;16.10;91.50;;;;;;5029343;28;20200;-65
2022/05/25 05:56:58;;;;;;;4.17;2.07;;;16.10;91.40;;;;;;5018265;28;20279;-65
2022/05/25 05:59:24;;;;;;;1.93;1.70;;;16.10;90.60;;;;;;4997254;28;20196;-65
2022/05/25 06:01:50;;;;;;;6.40;1.87;;;16.20;91.00;;;;;;5030926;28;20250;-66
2022/05/25 06:04:16;;;;;;;1.53;1.40;;;16.20;90.40;;;;;;5030938;28;20195;-66
2022/05/25 06:06:42;;;;;;;5.20;1.73;;;16.20;90.50;;;;;;5014783;28;20180;-66
2022/05/25 06:09:08;;;;;;;3.10;1.37;;;16.30;90.10;;;;;;5031458;28;20192;-67
2022/05/25 06:11:40;;;;;;;3.47;1.50;;;16.30;89.70;;;;;;5014375;28;20200;-66
2022/05/25 06:14:05;;;;;;;2.33;1.40;;;16.30;90.10;;;;;;4978778;28;20199;-66
2022/05/25 06:19:27;;;;;;;3.80;1.70;;;16.30;89.60;;;;;;5001713;28;20287;-65
2022/05/25 06:21:58;;;;;;;2.60;2.20;;;16.40;89.20;;;;;;5017161;28;20200;-65
2022/05/25 06:24:24;;;;;;;2.63;1.87;;;16.40;89.70;;;;;;5014139;28;20325;-66
2022/05/25 06:26:49;;;;;;;5.70;1.80;;;16.60;89.80;;;;;;5013639;28;20222;-67
2022/05/25 06:29:17;;;;;;;2.70;1.97;;;16.50;89.30;;;;;;5030212;28;20239;-64
2022/05/25 06:31:43;;;;;;;2.33;1.60;;;16.60;89.40;;;;;;4996670;28;20196;-65
2022/05/25 06:34:09;;;;;;;5.83;2.40;;;16.70;89.50;;;;;;5013923;28;20278;-65
2022/05/25 06:36:35;;;;;;;2.53;1.80;;;16.80;89.90;;;;;;4996817;28;20278;-65
2022/05/25 06:39:01;;;;;;;3.20;1.50;;;16.80;89.40;;;;;;5013571;28;20203;-65
2022/05/25 06:41:28;;;;;;;8.30;2.40;;;16.90;90.30;;;;;;4998272;28;20231;-65
2022/05/25 06:43:54;;;;;;;3.10;1.87;;;17.00;90.70;;;;;;4997668;28;20172;-65
2022/05/25 06:46:20;;;;;;;3.13;2.00;;;17.00;89.90;;;;;;4997930;28;20181;-65
2022/05/25 06:48:51;;;;;;;3.87;1.93;;;17.10;89.90;;;;;;5029370;28;20227;-65
2022/05/25 06:51:23;;;;;;;2.70;2.03;;;17.20;90.20;;;;;;5045750;28;20187;-65
2022/05/25 06:53:49;;;;;;;2.23;1.60;;;17.30;89.60;;;;;;5014082;28;20195;-66
2022/05/25 06:56:16;;;;;;;2.27;1.97;;;17.30;90.10;;;;;;5013355;28;20230;-65
2022/05/25 06:58:43;;;;;;;2.70;1.80;;;17.30;90.20;;;;;;5045690;28;20227;-65
2022/05/25 07:01:09;;;;;;;4.10;2.13;;;17.40;90.70;;;;;;5011774;28;20193;-65
2022/05/25 07:03:35;;;;;;;4.17;2.20;;;17.50;90.90;;;;;;5002831;28;20219;-65
2022/05/25 07:06:06;;;;;;;5.93;2.20;;;17.70;90.80;;;;;;4978004;28;20188;-65
2022/05/25 07:08:32;;;;;;;2.13;1.93;;;17.80;91.10;;;;;;4994245;28;20180;-65
2022/05/25 07:10:58;;;;;;;3.80;2.03;;;17.80;90.50;;;;;;4978246;28;20210;-64
2022/05/25 07:13:24;;;;;;;3.13;1.90;;;17.90;90.40;;;;;;4977951;28;20193;-65
2022/05/25 07:15:55;;;;;;;3.63;2.20;;;18.00;89.70;;;;;;4994222;28;20196;-66
2022/05/25 07:18:21;;;;;;;2.70;1.70;;;18.00;89.10;;;;;;4993784;28;20208;-65
2022/05/25 07:20:47;;;;;;;4.13;2.13;;;18.00;87.70;;;;;;4988691;28;20203;-65
2022/05/25 07:23:12;;;;;;;2.17;1.90;;;18.00;88.90;;;;;;5026596;28;20184;-64
2022/05/25 07:25:38;;;;;;;3.20;1.93;;;18.10;88.70;;;;;;5028233;28;20196;-64
2022/05/25 07:28:04;;;;;;;2.43;2.10;;;18.10;88.40;;;;;;5028659;28;20196;-64
2022/05/25 07:30:29;;;;;;;4.00;2.23;;;18.20;88.40;;;;;;4996439;28;20195;-64
2022/05/25 07:32:57;;;;;;;4.10;2.03;;;18.20;86.40;;;;;;4996216;28;20195;-64
2022/05/25 07:35:23;;;;;;;4.67;2.10;;;18.30;85.50;;;;;;5013475;28;20192;-65
2022/05/25 07:37:52;;;;;;;3.10;2.10;;;18.30;86.90;;;;;;5012608;28;20219;-64
2022/05/25 07:40:44;;;;;;;4.30;2.37;;;18.40;85.90;;;;;;5046587;28;20193;-64
2022/05/25 07:43:15;;;;;;;3.23;2.40;;;18.50;86.70;;;;;;5011454;28;20247;-64
2022/05/25 07:45:44;;;;;;;5.07;2.60;;;18.50;87.10;;;;;;5045904;28;20274;-64
2022/05/25 07:48:09;;;;;;;3.33;1.93;;;18.60;87.30;;;;;;5046430;28;20188;-64
2022/05/25 07:50:35;;;;;;;5.30;2.60;;;18.70;87.20;;;;;;5029496;28;20190;-64
2022/05/25 07:53:02;;;;;;;4.57;3.37;;;18.70;86.50;;;;;;5029556;28;20191;-64
2022/05/25 07:55:28;;;;;;;2.87;2.67;;;18.70;83.50;;;;;;5045727;28;20263;-64
2022/05/25 07:57:54;;;;;;;3.67;3.07;;;18.80;83.70;;;;;;4996224;28;20220;-63
2022/05/25 08:00:24;;;;;;;6.57;4.03;;;18.70;84.40;;;;;;5029429;28;20207;-64
2022/05/25 08:05:48;;;;;;;4.80;4.40;;;18.80;83.70;;;;;;5014844;28;20226;-64
2022/05/25 08:08:18;;;;;;;4.37;4.07;;;18.90;84.20;;;;;;5001916;28;20196;-64
2022/05/25 08:10:50;;;;;;;5.37;4.37;;;18.80;83.70;;;;;;4993091;28;20196;-64
2022/05/25 08:13:17;;;;;;;6.03;5.40;;;18.80;84.20;;;;;;4992133;28;20260;-64
2022/05/25 08:15:44;;;;;;;6.83;5.50;;;18.80;85.30;;;;;;4977155;28;20200;-64
2022/05/25 08:18:14;;;;;;;5.67;5.07;;;18.90;85.80;;;;;;4995450;28;20274;-64
2022/05/25 08:20:41;;;;;;;10.10;9.10;;;19.00;85.90;;;;;;5013120;28;20170;-64
2022/05/25 08:23:09;;;;;;;8.63;7.73;;;19.10;86.20;;;;;;4995824;28;20215;-64
2022/05/25 08:25:36;;;;;;;9.00;8.20;;;19.10;84.70;;;;;;5012334;28;20192;-64
2022/05/25 08:28:02;;;;;;;9.53;8.67;;;19.20;82.70;;;;;;5045306;28;20224;-64
2022/05/25 08:30:28;;;;;;;11.07;9.97;;;19.30;83.10;;;;;;4993297;28;20188;-64
2022/05/25 08:32:54;;;;;;;10.87;8.70;;;19.30;82.80;;;;;;4993819;28;20206;-63
2022/05/25 08:35:20;;;;;;;10.53;9.60;;;19.40;83.70;;;;;;5042957;28;20188;-64
2022/05/25 08:37:46;;;;;;;10.77;9.67;;;19.40;80.00;;;;;;5027277;28;20346;-64
2022/05/25 08:40:18;;;;;;;10.63;8.93;;;19.40;79.40;;;;;;4994699;28;20287;-64
2022/05/25 08:43:01;;;;;;;10.20;9.30;;;19.50;80.80;;;;;;5010737;28;20271;-64
2022/05/25 08:45:41;;;;;;;9.83;8.93;;;19.50;80.30;;;;;;5010787;28;20183;-64
2022/05/25 08:48:09;;;;;;;8.90;8.10;;;19.60;81.90;;;;;;5043825;28;20193;-63
2022/05/25 08:50:37;;;;;;;9.27;8.53;;;19.80;83.00;;;;;;5012100;28;20175;-64
2022/05/25 08:53:05;;;;;;;8.30;7.50;;;19.90;84.30;;;;;;5012378;28;20194;-64
2022/05/25 08:55:39;;;;;;;13.13;8.37;;;20.00;83.70;;;;;;5044403;28;20196;-64
2022/05/25 08:58:07;;;;;;;9.97;7.80;;;20.10;81.20;;;;;;5005994;28;20217;-63
2022/05/25 09:00:34;;;;;;;8.80;7.57;;;20.30;83.30;;;;;;5043923;28;20191;-63
2022/05/25 09:03:04;;;;;;;7.77;7.07;;;20.40;83.60;;;;;;4994377;28;20184;-63
2022/05/25 09:05:44;;;;;;;9.37;8.37;;;20.50;82.90;;;;;;5012220;28;20183;-63
2022/05/25 09:08:39;;;;;;;8.40;7.67;;;20.60;79.60;;;;;;5044868;28;20184;-64
2022/05/25 09:11:10;;;;;;;8.77;7.97;;;20.60;80.90;;;;;;5044750;28;20195;-64
2022/05/25 09:13:59;;;;;;;8.70;7.80;;;20.60;79.50;;;;;;5045092;28;20183;-63
2022/05/25 09:16:27;;;;;;;10.30;9.00;;;20.60;81.30;;;;;;5044445;28;20196;-63
2022/05/25 09:19:24;;;;;;;9.50;8.70;;;20.50;81.70;;;;;;5044968;28;20219;-63
2022/05/25 09:21:56;;;;;;;9.30;8.30;;;20.60;83.20;;;;;;5002466;28;20207;-64
2022/05/25 09:24:23;;;;;;;9.83;8.83;;;20.60;83.60;;;;;;5045913;28;20203;-64
2022/05/25 09:26:50;;;;;;;8.27;7.43;;;20.70;82.90;;;;;;5021901;28;20219;-63
2022/05/25 09:29:17;;;;;;;8.60;7.80;;;20.70;81.40;;;;;;5012636;28;20200;-64
2022/05/25 09:32:11;;;;;;;7.33;6.63;;;20.80;80.70;;;;;;4995092;28;20192;-64
2022/05/25 09:34:55;;;;;;;11.77;8.83;;;20.90;81.90;;;;;;4997794;28;20208;-64
2022/05/25 09:37:36;;;;;;;8.13;7.33;;;20.90;80.80;;;;;;5028784;28;20219;-62
2022/05/25 09:40:04;;;;;;;8.03;7.23;;;21.00;80.20;;;;;;4994476;28;20192;-63
2022/05/25 09:42:35;;;;;;;7.90;7.20;;;21.20;81.60;;;;;;5027929;28;20259;-63
2022/05/25 09:45:00;;;;;;;10.83;7.93;;;21.30;80.90;;;;;;5012682;28;20188;-63
2022/05/25 09:47:44;;;;;;;8.27;7.57;;;21.40;80.80;;;;;;5015496;28;20195;-63
2022/05/25 09:50:35;;;;;;;8.03;7.33;;;21.50;78.20;;;;;;5015885;28;20211;-63
2022/05/25 09:53:09;;;;;;;7.10;6.40;;;21.60;76.70;;;;;;5012988;28;20218;-65
2022/05/25 09:55:37;;;;;;;8.03;7.37;;;21.80;77.30;;;;;;5016099;28;20260;-64
2022/05/25 09:58:07;;;;;;;8.43;7.10;;;21.80;79.20;;;;;;5013443;28;20218;-64
2022/05/25 10:00:33;;;;;;;9.17;8.17;;;22.00;75.70;;;;;;5047780;28;20203;-64
2022/05/25 10:03:22;;;;;;;8.70;7.80;;;22.10;76.20;;;;;;5015691;28;20176;-64
2022/05/25 10:05:58;;;;;;;8.53;6.87;;;22.10;72.00;;;;;;5015199;28;20176;-63
2022/05/25 10:08:41;;;;;;;8.37;7.57;;;22.20;73.80;;;;;;5012864;28;20204;-64
2022/05/25 10:11:28;;;;;;;8.27;7.50;;;22.20;72.60;;;;;;5014224;28;20258;-64
2022/05/25 10:14:33;;;;;;;7.63;6.73;;;22.20;69.80;;;;;;5015080;28;20179;-65
2022/05/25 10:17:16;;;;;;;7.57;6.97;;;22.30;71.20;;;;;;4951746;29;20198;-62
2022/05/25 10:19:50;;;;;;;7.83;7.23;;;22.50;72.80;;;;;;4990529;28;20191;-64
2022/05/25 10:22:37;;;;;;;9.13;8.33;;;22.60;71.10;;;;;;4996194;28;20249;-66
2022/05/25 10:25:12;;;;;;;8.07;7.10;;;22.60;67.90;;;;;;5003316;28;20271;-65
2022/05/25 10:27:41;;;;;;;8.47;7.10;;;22.70;72.50;;;;;;5013846;28;20189;-64
2022/05/25 10:39:29;;;;;;;9.07;7.80;;;22.80;70.50;;;;;;5015848;28;20282;-64
2022/05/25 10:42:26;;;;;;;9.93;7.67;;;22.90;70.70;;;;;;5012927;28;20293;-63
2022/05/25 10:45:10;;;;;;;7.83;7.00;;;23.00;69.10;;;;;;5005680;28;20260;-61
2022/05/25 10:47:49;;;;;;;9.47;7.83;;;23.10;69.50;;;;;;5019866;28;20215;-60
2022/05/25 10:50:57;;;;;;;8.43;7.53;;;23.20;68.50;;;;;;5027019;28;20196;-60
2022/05/25 10:54:44;;;;;;;7.77;7.07;;;23.30;69.50;;;;;;5009443;28;20265;-61
2022/05/25 10:56:41;;;;;;;7.97;7.27;;;23.30;67.60;;;;;;5014735;28;20283;-62
2022/05/25 10:59:34;;;;;;;8.43;7.63;;;23.50;69.00;;;;;;5013903;28;20218;-60
2022/05/25 11:02:22;;;;;;;9.20;7.00;;;23.60;71.00;;;;;;5011061;28;20195;-61
2022/05/25 11:05:23;;;;;;;7.50;6.90;;;23.80;69.10;;;;;;5014140;28;20176;-61
2022/05/25 11:07:53;;;;;;;8.07;6.67;;;23.70;66.60;;;;;;5014799;28;20199;-61
2022/05/25 11:10:37;;;;;;;8.00;7.10;;;23.80;68.90;;;;;;5013136;28;20196;-62
2022/05/25 11:13:14;;;;;;;7.80;6.97;;;23.80;67.40;;;;;;5012641;28;20197;-61
2022/05/25 11:16:20;;;;;;;8.80;6.63;;;23.80;66.10;;;;;;5014299;28;20167;-61
2022/05/25 11:18:56;;;;;;;8.33;7.53;;;23.90;68.00;;;;;;5012912;28;20278;-61
2022/05/25 11:21:43;;;;;;;7.70;6.93;;;24.00;68.80;;;;;;5013416;28;20179;-61
2022/05/25 11:24:21;;;;;;;8.57;7.63;;;23.90;65.60;;;;;;5012955;28;20267;-61
2022/05/25 11:27:13;;;;;;;9.03;7.73;;;23.90;67.80;;;;;;5006115;28;20200;-61
2022/05/25 11:29:49;;;;;;;7.63;6.83;;;23.80;67.00;;;;;;5036244;28;20199;-62
2022/05/25 11:32:45;;;;;;;7.10;6.40;;;23.80;68.10;;;;;;5045453;28;20310;-62
2022/05/25 11:35:29;;;;;;;7.20;6.60;;;23.80;66.90;;;;;;5012307;28;20242;-62
2022/05/25 11:38:17;;;;;;;8.47;7.50;;;23.90;66.90;;;;;;5011409;28;20211;-62
2022/05/25 11:40:57;;;;;;;8.80;7.87;;;24.10;68.40;;;;;;5013054;28;20171;-62
2022/05/25 11:43:42;;;;;;;8.20;7.50;;;24.30;67.10;;;;;;5013317;28;20195;-63
2022/05/25 11:46:41;;;;;;;8.37;7.27;;;24.40;65.90;;;;;;5012448;28;20258;-62
2022/05/25 11:49:21;;;;;;;12.33;8.00;;;24.50;65.40;;;;;;5046212;28;20183;-61
2022/05/25 11:52:05;;;;;;;9.40;7.43;;;24.70;62.40;;;;;;5044200;28;20195;-61
2022/05/25 11:55:06;;;;;;;8.60;6.93;;;24.70;64.00;;;;;;5012315;28;20179;-61
2022/05/25 11:57:49;;;;;;;9.07;7.53;;;24.80;65.80;;;;;;5012156;28;20216;-61
2022/05/25 12:00:23;;;;;;;7.60;6.93;;;24.90;65.10;;;;;;5011237;28;20188;-61
2022/05/25 12:02:58;;;;;;;8.30;6.67;;;24.80;67.30;;;;;;5012852;28;20187;-61
2022/05/25 12:05:47;;;;;;;9.53;6.73;;;24.80;65.90;;;;;;5013316;28;20199;-62
2022/05/25 12:08:39;;;;;;;9.73;6.87;;;24.70;66.20;;;;;;5013539;28;20188;-62
2022/05/25 12:11:20;;;;;;;7.77;6.67;;;24.50;66.10;;;;;;5011865;28;20195;-62
2022/05/25 12:14:05;;;;;;;9.57;7.30;;;24.20;65.80;;;;;;5012904;28;20180;-62
2022/05/25 12:16:46;;;;;;;7.10;6.50;;;24.00;66.40;;;;;;5010972;28;20199;-61
2022/05/25 12:19:21;;;;;;;8.97;7.50;;;23.70;67.10;;;;;;5011980;28;20175;-61
2022/05/25 12:21:51;;;;;;;4.47;3.27;;;23.40;68.60;;;;;;5011986;28;20222;-61
2022/05/25 12:24:37;;;;;;;4.33;2.10;;;22.90;67.10;;;;;;5012048;28;20228;-63
2022/05/25 12:27:06;;;;;;;5.07;2.30;;;22.00;69.60;;;;;;5043673;28;20183;-64
2022/05/25 12:29:40;;;;;;;11.83;2.50;;;21.30;72.40;;;;;;5013250;28;20180;-61
2022/05/25 12:32:08;;;;;;;3.53;2.77;;;20.80;73.50;;;;;;5027958;28;20191;-61
2022/05/25 12:34:46;;;;;;;4.83;1.90;;;20.20;76.40;;;;;;4996270;28;20211;-62
2022/05/25 12:37:15;;;;;;;8.60;1.70;;;19.80;78.30;;;;;;5011455;28;20214;-63
2022/05/25 12:40:05;;;;;;;4.53;1.53;;;19.60;79.90;;;;;;5044708;28;20184;-64
2022/05/25 12:42:34;;;;;;;5.27;1.50;;;19.30;81.10;;;;;;5010298;28;20239;-62
2022/05/25 12:50:48;;;;;;;3.20;1.40;;;19.40;82.80;;;;;;5011722;28;20245;-63
2022/05/25 12:53:39;;;;;;;4.37;1.37;;;19.30;79.60;;;;;;5010633;28;20276;-63
2022/05/25 12:56:15;;;;;;;1.83;1.30;;;19.50;81.20;;;;;;5012277;28;20172;-62
2022/05/25 12:58:47;;;;;;;2.70;1.00;;;20.70;82.20;;;;;;5014269;28;20203;-63
2022/05/25 13:01:27;;;;;;;4.47;1.00;;;22.20;77.90;;;;;;5006837;28;20195;-61
2022/05/25 13:03:57;;;;;;;3.37;0.80;;;23.70;70.30;;;;;;5014530;28;20183;-61
2022/05/25 13:06:42;;;;;;;3.60;0.70;;;24.30;63.50;;;;;;5016097;28;20187;-62
2022/05/25 13:09:17;;;;;;;1.80;0.80;;;24.50;64.80;;;;;;5014143;28;20188;-61
2022/05/25 13:11:48;;;;;;;1.50;0.60;;;24.30;65.20;;;;;;5011072;28;20278;-62
2022/05/25 13:14:16;;;;;;;1.83;0.80;;;23.80;61.60;;;;;;5046203;28;20202;-62
2022/05/25 13:16:42;;;;;;;0.80;0.53;;;23.30;67.80;;;;;;5013780;28;20198;-63
2022/05/25 13:19:40;;;;;;;1.03;0.50;;;22.80;67.20;;;;;;5004664;28;20203;-61
2022/05/25 13:22:28;;;;;;;0.60;0.60;;;22.30;68.00;;;;;;5014986;28;20188;-62
2022/05/25 13:25:22;;;;;;;1.70;0.40;;;21.70;68.80;;;;;;5030958;28;20241;-61
2022/05/25 13:28:12;;;;;;;0.60;0.33;;;21.30;70.50;;;;;;5047061;28;20192;-61
2022/05/25 13:31:15;;;;;;;1.70;0.63;;;21.00;71.60;;;;;;4998747;28;20196;-61
2022/05/25 13:33:45;;;;;;;0.60;0.40;;;20.80;73.50;;;;;;5006994;28;20190;-62
2022/05/25 13:36:22;;;;;;;0.80;0.80;;;20.50;74.00;;;;;;5006363;28;20199;-63
2022/05/25 13:39:07;;;;;;;2.37;0.67;;;20.30;74.10;;;;;;5014446;28;20207;-61
2022/05/25 13:41:41;;;;;;;1.67;0.30;;;20.20;75.70;;;;;;5015430;28;20306;-62
2022/05/25 13:44:13;;;;;;;2.17;0.60;;;20.00;76.00;;;;;;5014477;28;20183;-62
2022/05/25 13:46:42;;;;;;;3.27;0.70;;;19.80;76.50;;;;;;5016455;28;20215;-62